sensor_id;sensor_type;location;lat;lon;timestamp;pressure;altitude;pressure_sealevel;temperature;humidity
7668;BME280;3876;42.204;24.686;2023-03-22T00:02:00;99033.66;;;12.78;100.00
7668;BME280;3876;42.204;24.686;2023-03-22T00:04:27;99056.38;;;12.87;100.00
7668;BME280;3876;42.204;24.686;2023-03-22T00:06:54;99053.53;;;12.75;100.00
7668;BME280;3876;42.204;24.686;2023-03-22T00:09:20;99043.66;;;12.66;100.00
7668;BME280;3876;42.204;24.686;2023-03-22T00:11:47;99038.53;;;12.66;100.00
7668;BME280;3876;42.204;24.686;2023-03-22T00:14:17;99046.84;;;12.71;100.00
7668;BME280;3876;42.204;24.686;2023-03-22T00:16:43;99039.91;;;12.73;100.00
7668;BME280;3876;42.204;24.686;2023-03-22T00:19:13;99046.56;;;12.77;100.00
7668;BME280;3876;42.204;24.686;2023-03-22T00:21:40;99055.91;;;12.79;100.00
7668;BME280;3876;42.204;24.686;2023-03-22T00:24:07;99041.28;;;12.80;100.00
7668;BME280;3876;42.204;24.686;2023-03-22T00:26:34;99044.66;;;12.82;100.00
7668;BME280;3876;42.204;24.686;2023-03-22T00:29:01;99039.50;;;12.82;100.00
7668;BME280;3876;42.204;24.686;2023-03-22T00:31:29;99046.09;;;12.87;100.00
7668;BME280;3876;42.204;24.686;2023-03-22T00:33:56;99047.00;;;12.86;100.00
7668;BME280;3876;42.204;24.686;2023-03-22T00:36:23;99045.06;;;12.73;100.00
7668;BME280;3876;42.204;24.686;2023-03-22T00:38:50;99046.84;;;12.71;100.00
7668;BME280;3876;42.204;24.686;2023-03-22T00:41:19;99018.34;;;12.56;100.00
7668;BME280;3876;42.204;24.686;2023-03-22T00:43:46;99040.81;;;12.72;100.00
7668;BME280;3876;42.204;24.686;2023-03-22T00:46:15;99043.38;;;12.72;100.00
7668;BME280;3876;42.204;24.686;2023-03-22T00:48:44;99027.81;;;12.75;100.00
7668;BME280;3876;42.204;24.686;2023-03-22T00:51:11;99031.16;;;12.77;100.00
7668;BME280;3876;42.204;24.686;2023-03-22T00:53:38;99027.69;;;12.78;100.00
7668;BME280;3876;42.204;24.686;2023-03-22T00:56:07;99029.50;;;12.76;100.00
7668;BME280;3876;42.204;24.686;2023-03-22T00:58:34;99032.97;;;12.75;100.00
7668;BME280;3876;42.204;24.686;2023-03-22T01:01:01;99031.09;;;12.78;100.00
7668;BME280;3876;42.204;24.686;2023-03-22T01:03:28;99033.81;;;12.75;100.00
7668;BME280;3876;42.204;24.686;2023-03-22T01:05:56;99030.44;;;12.73;100.00
7668;BME280;3876;42.204;24.686;2023-03-22T01:08:23;99032.97;;;12.75;100.00
7668;BME280;3876;42.204;24.686;2023-03-22T01:10:58;99024.50;;;12.73;100.00
7668;BME280;3876;42.204;24.686;2023-03-22T01:13:25;99028.78;;;12.72;100.00
7668;BME280;3876;42.204;24.686;2023-03-22T01:15:52;99022.66;;;12.75;100.00
7668;BME280;3876;42.204;24.686;2023-03-22T01:18:19;99022.66;;;12.75;100.00
7668;BME280;3876;42.204;24.686;2023-03-22T01:20:46;99031.56;;;12.68;100.00
7668;BME280;3876;42.204;24.686;2023-03-22T01:23:14;99030.03;;;12.63;100.00
7668;BME280;3876;42.204;24.686;2023-03-22T01:25:41;99024.19;;;12.60;100.00
7668;BME280;3876;42.204;24.686;2023-03-22T01:28:08;99016.53;;;12.58;100.00
7668;BME280;3876;42.204;24.686;2023-03-22T01:30:35;99017.53;;;12.56;100.00
7668;BME280;3876;42.204;24.686;2023-03-22T01:33:03;99024.59;;;12.51;100.00
7668;BME280;3876;42.204;24.686;2023-03-22T01:35:32;99025.22;;;12.37;100.00
7668;BME280;3876;42.204;24.686;2023-03-22T01:37:58;99024.56;;;12.32;100.00
7668;BME280;3876;42.204;24.686;2023-03-22T01:40:27;99031.34;;;12.15;100.00
7668;BME280;3876;42.204;24.686;2023-03-22T01:42:57;99025.03;;;11.81;100.00
7668;BME280;3876;42.204;24.686;2023-03-22T01:45:33;99031.31;;;11.52;100.00
7668;BME280;3876;42.204;24.686;2023-03-22T01:48:04;99029.03;;;11.23;100.00
7668;BME280;3876;42.204;24.686;2023-03-22T01:50:33;99034.66;;;11.11;100.00
7668;BME280;3876;42.204;24.686;2023-03-22T01:53:02;99033.44;;;10.98;100.00
7668;BME280;3876;42.204;24.686;2023-03-22T01:55:31;99016.00;;;10.84;100.00
7668;BME280;3876;42.204;24.686;2023-03-22T01:57:59;99016.28;;;10.77;100.00
7668;BME280;3876;42.204;24.686;2023-03-22T02:00:27;99021.09;;;10.63;100.00
7668;BME280;3876;42.204;24.686;2023-03-22T02:02:54;99029.16;;;10.75;100.00
7668;BME280;3876;42.204;24.686;2023-03-22T02:05:21;99034.69;;;10.65;100.00
7668;BME280;3876;42.204;24.686;2023-03-22T02:07:48;99029.78;;;10.59;100.00
7668;BME280;3876;42.204;24.686;2023-03-22T02:10:18;99034.63;;;10.43;100.00
7668;BME280;3876;42.204;24.686;2023-03-22T02:15:49;99040.75;;;10.37;100.00
7668;BME280;3876;42.204;24.686;2023-03-22T02:18:31;99040.72;;;10.39;100.00
7668;BME280;3876;42.204;24.686;2023-03-22T02:21:40;99042.44;;;10.38;100.00
7668;BME280;3876;42.204;24.686;2023-03-22T02:24:43;99052.81;;;10.35;100.00
7668;BME280;3876;42.204;24.686;2023-03-22T02:27:38;99049.97;;;10.18;100.00
7668;BME280;3876;42.204;24.686;2023-03-22T02:30:35;99035.63;;;10.14;100.00
7668;BME280;3876;42.204;24.686;2023-03-22T02:33:25;99045.78;;;10.17;100.00
7668;BME280;3876;42.204;24.686;2023-03-22T02:36:09;99051.00;;;10.13;100.00
7668;BME280;3876;42.204;24.686;2023-03-22T02:39:07;99046.88;;;10.09;100.00
7668;BME280;3876;42.204;24.686;2023-03-22T02:42:00;99062.88;;;10.15;100.00
7668;BME280;3876;42.204;24.686;2023-03-22T02:44:39;99056.00;;;10.17;100.00
7668;BME280;3876;42.204;24.686;2023-03-22T02:47:08;99043.19;;;10.17;100.00
7668;BME280;3876;42.204;24.686;2023-03-22T02:49:45;99058.03;;;10.32;100.00
7668;BME280;3876;42.204;24.686;2023-03-22T02:52:20;99048.75;;;10.30;100.00
7668;BME280;3876;42.204;24.686;2023-03-22T02:54:54;99058.56;;;10.42;100.00
7668;BME280;3876;42.204;24.686;2023-03-22T02:57:31;99058.69;;;10.37;100.00
7668;BME280;3876;42.204;24.686;2023-03-22T03:00:00;99064.31;;;10.48;100.00
7668;BME280;3876;42.204;24.686;2023-03-22T03:02:33;99064.03;;;10.56;100.00
7668;BME280;3876;42.204;24.686;2023-03-22T03:05:01;99064.09;;;10.54;100.00
7668;BME280;3876;42.204;24.686;2023-03-22T03:07:29;99069.97;;;10.57;100.00
7668;BME280;3876;42.204;24.686;2023-03-22T03:09:58;99071.31;;;10.67;100.00
7668;BME280;3876;42.204;24.686;2023-03-22T03:12:26;99056.25;;;10.59;100.00
7668;BME280;3876;42.204;24.686;2023-03-22T03:14:54;99067.03;;;10.67;100.00
7668;BME280;3876;42.204;24.686;2023-03-22T03:17:30;99081.44;;;10.71;100.00
7668;BME280;3876;42.204;24.686;2023-03-22T03:20:18;99074.63;;;10.70;100.00
7668;BME280;3876;42.204;24.686;2023-03-22T03:22:56;99076.47;;;10.67;100.00
7668;BME280;3876;42.204;24.686;2023-03-22T03:25:32;99077.25;;;10.69;100.00
7668;BME280;3876;42.204;24.686;2023-03-22T03:28:11;99077.38;;;10.66;100.00
7668;BME280;3876;42.204;24.686;2023-03-22T03:30:44;99084.44;;;10.59;100.00
7668;BME280;3876;42.204;24.686;2023-03-22T03:33:16;99080.03;;;10.63;100.00
7668;BME280;3876;42.204;24.686;2023-03-22T03:35:46;99073.22;;;10.62;100.00
7668;BME280;3876;42.204;24.686;2023-03-22T03:38:18;99076.69;;;10.61;100.00
7668;BME280;3876;42.204;24.686;2023-03-22T03:40:50;99076.47;;;10.67;100.00
7668;BME280;3876;42.204;24.686;2023-03-22T03:43:20;99078.91;;;10.70;100.00
7668;BME280;3876;42.204;24.686;2023-03-22T03:45:47;99079.13;;;10.64;100.00
7668;BME280;3876;42.204;24.686;2023-03-22T03:48:18;99079.81;;;10.69;100.00
7668;BME280;3876;42.204;24.686;2023-03-22T03:50:49;99071.22;;;10.70;100.00
7668;BME280;3876;42.204;24.686;2023-03-22T03:53:17;99080.38;;;10.77;100.00
7668;BME280;3876;42.204;24.686;2023-03-22T03:55:44;99090.41;;;10.83;100.00
7668;BME280;3876;42.204;24.686;2023-03-22T03:58:13;99087.69;;;10.87;100.00
7668;BME280;3876;42.204;24.686;2023-03-22T04:00:40;99088.44;;;10.89;100.00
7668;BME280;3876;42.204;24.686;2023-03-22T04:03:08;99086.38;;;10.99;100.00
7668;BME280;3876;42.204;24.686;2023-03-22T04:05:35;99098.22;;;11.03;100.00
7668;BME280;3876;42.204;24.686;2023-03-22T04:08:02;99076.34;;;10.93;100.00
7668;BME280;3876;42.204;24.686;2023-03-22T04:10:29;99093.09;;;11.03;100.00
7668;BME280;3876;42.204;24.686;2023-03-22T04:12:56;99092.09;;;11.07;100.00
7668;BME280;3876;42.204;24.686;2023-03-22T04:15:25;99097.97;;;11.09;100.00
7668;BME280;3876;42.204;24.686;2023-03-22T04:17:51;99106.38;;;11.14;100.00
7668;BME280;3876;42.204;24.686;2023-03-22T04:20:19;99108.31;;;11.07;100.00
7668;BME280;3876;42.204;24.686;2023-03-22T04:22:46;99113.59;;;11.03;100.00
7668;BME280;3876;42.204;24.686;2023-03-22T04:25:14;99116.44;;;10.95;100.00
7668;BME280;3876;42.204;24.686;2023-03-22T04:27:44;99096.47;;;10.80;100.00
7668;BME280;3876;42.204;24.686;2023-03-22T04:30:13;99105.63;;;10.87;100.00
7668;BME280;3876;42.204;24.686;2023-03-22T04:32:44;99123.25;;;10.96;100.00
7668;BME280;3876;42.204;24.686;2023-03-22T04:35:12;99123.34;;;10.93;100.00
7668;BME280;3876;42.204;24.686;2023-03-22T04:37:39;99113.94;;;10.94;100.00
7668;BME280;3876;42.204;24.686;2023-03-22T04:40:07;99113.94;;;10.94;100.00
7668;BME280;3876;42.204;24.686;2023-03-22T04:42:34;99122.75;;;10.87;100.00
7668;BME280;3876;42.204;24.686;2023-03-22T04:45:01;99123.50;;;10.89;100.00
7668;BME280;3876;42.204;24.686;2023-03-22T04:47:29;99120.44;;;10.79;100.00
7668;BME280;3876;42.204;24.686;2023-03-22T04:49:57;99119.81;;;10.73;100.00
7668;BME280;3876;42.204;24.686;2023-03-22T04:52:24;99122.38;;;10.73;100.00
7668;BME280;3876;42.204;24.686;2023-03-22T04:54:50;99121.38;;;10.77;100.00
7668;BME280;3876;42.204;24.686;2023-03-22T04:57:17;99126.75;;;10.71;100.00
7668;BME280;3876;42.204;24.686;2023-03-22T04:59:44;99128.09;;;10.81;100.00
7668;BME280;3876;42.204;24.686;2023-03-22T05:02:11;99136.41;;;10.87;100.00
7668;BME280;3876;42.204;24.686;2023-03-22T05:04:37;99123.69;;;10.84;100.00
7668;BME280;3876;42.204;24.686;2023-03-22T05:07:06;99136.25;;;10.92;100.00
7668;BME280;3876;42.204;24.686;2023-03-22T05:09:32;99141.38;;;10.92;100.00
7668;BME280;3876;42.204;24.686;2023-03-22T05:11:59;99146.41;;;10.95;100.00
7668;BME280;3876;42.204;24.686;2023-03-22T05:14:26;99154.88;;;10.97;100.00
7668;BME280;3876;42.204;24.686;2023-03-22T05:16:53;99146.19;;;11.01;100.00
7668;BME280;3876;42.204;24.686;2023-03-22T05:19:20;99153.66;;;11.07;100.00
7668;BME280;3876;42.204;24.686;2023-03-22T05:21:48;99148.44;;;11.08;100.00
7668;BME280;3876;42.204;24.686;2023-03-22T05:24:23;99153.47;;;11.12;100.00
7668;BME280;3876;42.204;24.686;2023-03-22T05:26:50;99152.53;;;11.14;100.00
7668;BME280;3876;42.204;24.686;2023-03-22T05:29:18;99152.53;;;11.14;100.00
7668;BME280;3876;42.204;24.686;2023-03-22T05:31:45;99151.00;;;11.08;100.00
7668;BME280;3876;42.204;24.686;2023-03-22T05:34:12;99145.94;;;11.07;100.00
7668;BME280;3876;42.204;24.686;2023-03-22T05:36:39;99161.13;;;11.13;100.00
7668;BME280;3876;42.204;24.686;2023-03-22T05:39:06;99176.28;;;11.19;100.00
7668;BME280;3876;42.204;24.686;2023-03-22T05:41:34;99179.97;;;11.12;100.00
7668;BME280;3876;42.204;24.686;2023-03-22T05:44:01;99180.81;;;11.13;100.00
7668;BME280;3876;42.204;24.686;2023-03-22T05:46:28;99172.25;;;11.12;100.00
7668;BME280;3876;42.204;24.686;2023-03-22T05:48:55;99174.59;;;11.18;100.00
7668;BME280;3876;42.204;24.686;2023-03-22T05:51:22;99156.09;;;11.10;100.00
7668;BME280;3876;42.204;24.686;2023-03-22T05:53:50;99183.72;;;11.27;100.00
7668;BME280;3876;42.204;24.686;2023-03-22T05:56:18;99192.91;;;11.32;100.00
7668;BME280;3876;42.204;24.686;2023-03-22T05:58:49;99196.25;;;11.34;100.00
7668;BME280;3876;42.204;24.686;2023-03-22T06:01:16;99202.94;;;11.38;100.00
7668;BME280;3876;42.204;24.686;2023-03-22T06:03:44;99191.13;;;11.34;100.00
7668;BME280;3876;42.204;24.686;2023-03-22T06:06:12;99195.81;;;11.46;100.00
7668;BME280;3876;42.204;24.686;2023-03-22T06:08:40;99202.59;;;11.47;100.00
7668;BME280;3876;42.204;24.686;2023-03-22T06:11:07;99206.75;;;11.51;100.00
7668;BME280;3876;42.204;24.686;2023-03-22T06:13:34;99211.75;;;11.54;100.00
7668;BME280;3876;42.204;24.686;2023-03-22T06:16:03;99206.41;;;11.60;100.00
7668;BME280;3876;42.204;24.686;2023-03-22T06:18:30;99217.59;;;11.59;100.00
7668;BME280;3876;42.204;24.686;2023-03-22T06:20:58;99219.22;;;11.60;100.00
7668;BME280;3876;42.204;24.686;2023-03-22T06:23:24;99217.69;;;11.56;100.00
7668;BME280;3876;42.204;24.686;2023-03-22T06:25:51;99216.00;;;11.55;100.00
7668;BME280;3876;42.204;24.686;2023-03-22T06:28:18;99220.31;;;11.55;100.00
7668;BME280;3876;42.204;24.686;2023-03-22T06:30:45;99224.59;;;11.54;100.00
7668;BME280;3876;42.204;24.686;2023-03-22T06:33:13;99235.75;;;11.53;100.00
7668;BME280;3876;42.204;24.686;2023-03-22T06:35:40;99227.50;;;11.45;100.00
7668;BME280;3876;42.204;24.686;2023-03-22T06:38:07;99245.38;;;11.48;100.00
7668;BME280;3876;42.204;24.686;2023-03-22T06:40:33;99248.09;;;11.44;100.00
7668;BME280;3876;42.204;24.686;2023-03-22T06:43:00;99261.53;;;11.50;100.00
7668;BME280;3876;42.204;24.686;2023-03-22T06:45:28;99239.75;;;11.37;100.00
7668;BME280;3876;42.204;24.686;2023-03-22T06:47:58;99259.06;;;11.47;100.00
7668;BME280;3876;42.204;24.686;2023-03-22T06:50:26;99262.22;;;11.55;100.00
7668;BME280;3876;42.204;24.686;2023-03-22T06:52:53;99270.59;;;11.60;100.00
7668;BME280;3876;42.204;24.686;2023-03-22T06:55:20;99262.72;;;11.65;100.00
7668;BME280;3876;42.204;24.686;2023-03-22T06:57:46;99262.03;;;11.60;100.00
7668;BME280;3876;42.204;24.686;2023-03-22T07:00:14;99261.22;;;11.59;100.00
7668;BME280;3876;42.204;24.686;2023-03-22T07:02:41;99256.88;;;11.62;100.00
7668;BME280;3876;42.204;24.686;2023-03-22T07:05:08;99253.28;;;11.66;100.00
7668;BME280;3876;42.204;24.686;2023-03-22T07:07:37;99244.78;;;11.64;100.00
7668;BME280;3876;42.204;24.686;2023-03-22T07:10:04;99250.03;;;11.60;100.00
7668;BME280;3876;42.204;24.686;2023-03-22T07:12:33;99239.22;;;11.52;100.00
7668;BME280;3876;42.204;24.686;2023-03-22T07:15:00;99240.06;;;11.53;100.00
7668;BME280;3876;42.204;24.686;2023-03-22T07:17:27;99227.97;;;11.56;100.00
7668;BME280;3876;42.204;24.686;2023-03-22T07:19:54;99228.38;;;11.44;100.00
7668;BME280;3876;42.204;24.686;2023-03-22T07:22:21;99220.03;;;11.39;100.00
7668;BME280;3876;42.204;24.686;2023-03-22T07:24:50;99219.41;;;11.33;100.00
7668;BME280;3876;42.204;24.686;2023-03-22T07:27:17;99208.75;;;11.20;100.00
7668;BME280;3876;42.204;24.686;2023-03-22T07:29:44;99196.09;;;11.16;100.00
7668;BME280;3876;42.204;24.686;2023-03-22T07:32:11;99220.16;;;11.12;100.00
7668;BME280;3876;42.204;24.686;2023-03-22T07:34:38;99238.09;;;11.13;100.00
7668;BME280;3876;42.204;24.686;2023-03-22T07:37:05;99256.88;;;11.14;100.00
7668;BME280;3876;42.204;24.686;2023-03-22T07:39:32;99244.16;;;11.11;100.00
7668;BME280;3876;42.204;24.686;2023-03-22T07:42:01;99268.94;;;11.35;100.00
7668;BME280;3876;42.204;24.686;2023-03-22T07:44:28;99234.69;;;11.36;100.00
7668;BME280;3876;42.204;24.686;2023-03-22T07:46:55;99260.31;;;11.60;100.00
7668;BME280;3876;42.204;24.686;2023-03-22T07:49:22;99262.53;;;11.71;100.00
7668;BME280;3876;42.204;24.686;2023-03-22T07:51:49;99260.59;;;11.76;100.00
7668;BME280;3876;42.204;24.686;2023-03-22T07:54:15;99273.91;;;11.87;100.00
7668;BME280;3876;42.204;24.686;2023-03-22T07:56:42;99272.84;;;11.93;100.00
7668;BME280;3876;42.204;24.686;2023-03-22T07:59:13;99281.22;;;11.98;100.00
7668;BME280;3876;42.204;24.686;2023-03-22T08:01:40;99284.44;;;12.03;100.00
7668;BME280;3876;42.204;24.686;2023-03-22T08:04:07;99285.88;;;12.10;100.00
7668;BME280;3876;42.204;24.686;2023-03-22T08:06:34;99287.34;;;12.17;100.00
7668;BME280;3876;42.204;24.686;2023-03-22T08:09:02;99294.84;;;12.22;100.00
7668;BME280;3876;42.204;24.686;2023-03-22T08:11:29;99290.78;;;12.16;100.00
7668;BME280;3876;42.204;24.686;2023-03-22T08:13:56;99297.28;;;12.25;100.00
7668;BME280;3876;42.204;24.686;2023-03-22T08:16:24;99284.22;;;12.31;100.00
7668;BME280;3876;42.204;24.686;2023-03-22T08:18:51;99287.50;;;12.34;100.00
7668;BME280;3876;42.204;24.686;2023-03-22T08:21:18;99291.63;;;12.38;100.00
7668;BME280;3876;42.204;24.686;2023-03-22T08:23:45;99292.53;;;12.37;100.00
7668;BME280;3876;42.204;24.686;2023-03-22T08:26:12;99296.59;;;12.43;100.00
7668;BME280;3876;42.204;24.686;2023-03-22T08:28:38;99297.19;;;12.49;100.00
7668;BME280;3876;42.204;24.686;2023-03-22T08:31:10;99297.78;;;12.56;100.00
7668;BME280;3876;42.204;24.686;2023-03-22T08:33:38;99305.31;;;12.60;100.00
7668;BME280;3876;42.204;24.686;2023-03-22T08:36:06;99315.47;;;12.63;100.00
7668;BME280;3876;42.204;24.686;2023-03-22T08:38:34;99306.75;;;12.68;100.00
7668;BME280;3876;42.204;24.686;2023-03-22T08:41:01;99303.75;;;12.78;100.00
7668;BME280;3876;42.204;24.686;2023-03-22T08:43:27;99304.22;;;12.88;100.00
7668;BME280;3876;42.204;24.686;2023-03-22T08:45:54;99304.97;;;12.90;100.00
7668;BME280;3876;42.204;24.686;2023-03-22T08:48:22;99304.84;;;12.93;100.00
7668;BME280;3876;42.204;24.686;2023-03-22T08:50:50;99297.91;;;12.95;100.00
7668;BME280;3876;42.204;24.686;2023-03-22T08:53:17;99303.06;;;12.95;100.00
7668;BME280;3876;42.204;24.686;2023-03-22T08:55:44;99307.25;;;12.97;100.00
7668;BME280;3876;42.204;24.686;2023-03-22T08:58:12;99303.66;;;13.01;100.00
7668;BME280;3876;42.204;24.686;2023-03-22T09:00:41;99305.91;;;13.09;100.00
7668;BME280;3876;42.204;24.686;2023-03-22T09:03:07;99292.25;;;13.07;100.00
7668;BME280;3876;42.204;24.686;2023-03-22T09:05:34;99299.06;;;13.08;100.00
7668;BME280;3876;42.204;24.686;2023-03-22T09:08:03;99292.16;;;13.10;100.00
7668;BME280;3876;42.204;24.686;2023-03-22T09:10:30;99297.03;;;13.16;100.00
7668;BME280;3876;42.204;24.686;2023-03-22T09:12:57;99290.09;;;13.18;100.00
7668;BME280;3876;42.204;24.686;2023-03-22T09:15:24;99294.31;;;13.19;100.00
7668;BME280;3876;42.204;24.686;2023-03-22T09:17:51;99296.59;;;13.27;100.00
7668;BME280;3876;42.204;24.686;2023-03-22T09:20:18;99292.78;;;13.35;100.00
7668;BME280;3876;42.204;24.686;2023-03-22T09:22:49;99294.31;;;13.39;100.00
7668;BME280;3876;42.204;24.686;2023-03-22T09:25:18;99295.91;;;13.42;100.00
7668;BME280;3876;42.204;24.686;2023-03-22T09:27:45;99299.19;;;13.45;100.00
7668;BME280;3876;42.204;24.686;2023-03-22T09:30:13;99307.69;;;13.47;100.00
7668;BME280;3876;42.204;24.686;2023-03-22T09:32:39;99303.31;;;13.49;100.00
7668;BME280;3876;42.204;24.686;2023-03-22T09:35:07;99305.00;;;13.50;100.00
7668;BME280;3876;42.204;24.686;2023-03-22T09:37:34;99307.44;;;13.53;100.00
7668;BME280;3876;42.204;24.686;2023-03-22T09:40:00;99301.22;;;13.57;100.00
7668;BME280;3876;42.204;24.686;2023-03-22T09:42:32;99304.88;;;13.53;100.00
7668;BME280;3876;42.204;24.686;2023-03-22T09:45:04;99299.59;;;13.56;100.00
7668;BME280;3876;42.204;24.686;2023-03-22T09:47:35;99302.66;;;13.64;100.00
7668;BME280;3876;42.204;24.686;2023-03-22T09:50:07;99293.94;;;13.67;100.00
7668;BME280;3876;42.204;24.686;2023-03-22T09:52:38;99290.75;;;13.62;100.00
7668;BME280;3876;42.204;24.686;2023-03-22T09:55:09;99281.97;;;13.66;100.00
7668;BME280;3876;42.204;24.686;2023-03-22T09:57:41;99289.28;;;13.75;100.00
7668;BME280;3876;42.204;24.686;2023-03-22T10:00:13;99285.25;;;13.70;100.00
7668;BME280;3876;42.204;24.686;2023-03-22T10:02:52;99280.59;;;13.78;100.00
7668;BME280;3876;42.204;24.686;2023-03-22T10:05:26;99291.59;;;13.81;100.00
7668;BME280;3876;42.204;24.686;2023-03-22T10:08:16;99293.97;;;13.86;100.00
7668;BME280;3876;42.204;24.686;2023-03-22T10:10:47;99284.44;;;13.88;100.00
7668;BME280;3876;42.204;24.686;2023-03-22T10:13:22;99293.69;;;13.92;100.00
7668;BME280;3876;42.204;24.686;2023-03-22T10:15:54;99286.03;;;13.90;100.00
7668;BME280;3876;42.204;24.686;2023-03-22T10:18:25;99285.59;;;13.99;100.00
7668;BME280;3876;42.204;24.686;2023-03-22T10:20:58;99287.69;;;14.10;100.00
7668;BME280;3876;42.204;24.686;2023-03-22T10:23:29;99283.78;;;14.20;100.00
7668;BME280;3876;42.204;24.686;2023-03-22T10:25:59;99288.19;;;14.18;100.00
7668;BME280;3876;42.204;24.686;2023-03-22T10:28:33;99287.13;;;14.22;100.00
7668;BME280;3876;42.204;24.686;2023-03-22T10:31:00;99276.44;;;14.30;100.00
7668;BME280;3876;42.204;24.686;2023-03-22T10:33:33;99285.78;;;14.32;100.00
7668;BME280;3876;42.204;24.686;2023-03-22T10:36:02;99287.94;;;14.41;100.00
7668;BME280;3876;42.204;24.686;2023-03-22T10:38:30;99277.38;;;14.47;100.00
7668;BME280;3876;42.204;24.686;2023-03-22T10:41:00;99270.09;;;14.55;100.00
7668;BME280;3876;42.204;24.686;2023-03-22T10:43:31;99274.94;;;14.61;100.00
7668;BME280;3876;42.204;24.686;2023-03-22T10:46:01;99279.94;;;14.64;100.00
7668;BME280;3876;42.204;24.686;2023-03-22T10:48:31;99279.81;;;14.67;100.00
7668;BME280;3876;42.204;24.686;2023-03-22T10:50:59;99276.00;;;14.75;100.00
7668;BME280;3876;42.204;24.686;2023-03-22T10:53:36;99279.59;;;14.89;100.00
7668;BME280;3876;42.204;24.686;2023-03-22T10:56:05;99275.25;;;14.90;100.00
7668;BME280;3876;42.204;24.686;2023-03-22T10:58:38;99274.13;;;14.95;100.00
7668;BME280;3876;42.204;24.686;2023-03-22T11:01:07;99268.97;;;14.95;100.00
7668;BME280;3876;42.204;24.686;2023-03-22T11:03:37;99267.81;;;15.01;100.00
7668;BME280;3876;42.204;24.686;2023-03-22T11:06:07;99271.16;;;15.03;100.00
7668;BME280;3876;42.204;24.686;2023-03-22T11:08:43;99260.00;;;15.02;100.00
7668;BME280;3876;42.204;24.686;2023-03-22T11:11:19;99272.16;;;15.00;100.00
7668;BME280;3876;42.204;24.686;2023-03-22T11:13:54;99263.66;;;14.98;100.00
7668;BME280;3876;42.204;24.686;2023-03-22T11:16:22;99261.38;;;14.92;100.00
7668;BME280;3876;42.204;24.686;2023-03-22T11:18:49;99261.28;;;14.94;100.00
7668;BME280;3876;42.204;24.686;2023-03-22T11:21:17;99246.56;;;14.96;100.00
7668;BME280;3876;42.204;24.686;2023-03-22T11:23:53;99250.13;;;14.93;100.00
7668;BME280;3876;42.204;24.686;2023-03-22T11:26:27;99259.22;;;15.00;100.00
7668;BME280;3876;42.204;24.686;2023-03-22T11:29:04;99261.75;;;15.02;100.00
7668;BME280;3876;42.204;24.686;2023-03-22T11:31:53;99261.50;;;15.06;100.00
7668;BME280;3876;42.204;24.686;2023-03-22T11:34:23;99258.69;;;15.11;100.00
7668;BME280;3876;42.204;24.686;2023-03-22T11:36:50;99253.53;;;15.11;100.00
7668;BME280;3876;42.204;24.686;2023-03-22T11:39:22;99254.53;;;15.08;100.00
7668;BME280;3876;42.204;24.686;2023-03-22T11:41:50;99245.84;;;15.09;100.00
7668;BME280;3876;42.204;24.686;2023-03-22T11:44:20;99253.38;;;15.14;100.00
7668;BME280;3876;42.204;24.686;2023-03-22T11:46:51;99243.38;;;15.08;100.00
7668;BME280;3876;42.204;24.686;2023-03-22T11:49:22;99246.53;;;15.13;100.00
7668;BME280;3876;42.204;24.686;2023-03-22T11:51:52;99249.13;;;15.13;100.00
7668;BME280;3876;42.204;24.686;2023-03-22T11:54:26;99229.69;;;15.06;100.00
7668;BME280;3876;42.204;24.686;2023-03-22T11:56:56;99244.56;;;15.18;99.76
7668;BME280;3876;42.204;24.686;2023-03-22T11:59:27;99236.34;;;15.27;99.54
7668;BME280;3876;42.204;24.686;2023-03-22T12:01:59;99242.25;;;15.29;100.00
7668;BME280;3876;42.204;24.686;2023-03-22T12:04:33;99249.41;;;15.24;98.84
7668;BME280;3876;42.204;24.686;2023-03-22T12:07:08;99232.56;;;15.17;99.17
7668;BME280;3876;42.204;24.686;2023-03-22T12:09:40;99226.56;;;15.16;98.86
7668;BME280;3876;42.204;24.686;2023-03-22T12:12:13;99233.28;;;15.36;99.01
7668;BME280;3876;42.204;24.686;2023-03-22T12:14:46;99235.63;;;15.41;99.45
7668;BME280;3876;42.204;24.686;2023-03-22T12:17:22;99224.75;;;15.51;100.00
7668;BME280;3876;42.204;24.686;2023-03-22T12:19:58;99231.25;;;15.58;99.85
7668;BME280;3876;42.204;24.686;2023-03-22T12:22:32;99235.38;;;15.62;97.42
7668;BME280;3876;42.204;24.686;2023-03-22T12:25:00;99239.53;;;15.65;96.50
7668;BME280;3876;42.204;24.686;2023-03-22T12:27:31;99237.44;;;15.71;95.92
7668;BME280;3876;42.204;24.686;2023-03-22T12:30:03;99239.69;;;15.77;99.45
7668;BME280;3876;42.204;24.686;2023-03-22T12:32:34;99237.56;;;15.86;100.00
7668;BME280;3876;42.204;24.686;2023-03-22T12:35:07;99227.94;;;15.88;96.56
7668;BME280;3876;42.204;24.686;2023-03-22T12:37:38;99238.91;;;15.93;96.36
7668;BME280;3876;42.204;24.686;2023-03-22T12:40:17;99226.72;;;15.95;95.83
7668;BME280;3876;42.204;24.686;2023-03-22T12:42:49;99236.38;;;15.91;95.45
7668;BME280;3876;42.204;24.686;2023-03-22T12:45:21;99239.53;;;15.81;95.52
7668;BME280;3876;42.204;24.686;2023-03-22T12:47:52;99235.38;;;15.78;96.08
7668;BME280;3876;42.204;24.686;2023-03-22T12:50:25;99236.72;;;15.69;94.31
7668;BME280;3876;42.204;24.686;2023-03-22T12:52:54;99230.94;;;15.64;95.24
7668;BME280;3876;42.204;24.686;2023-03-22T12:55:24;99235.38;;;15.62;94.59
7668;BME280;3876;42.204;24.686;2023-03-22T12:57:53;99221.41;;;15.49;94.37
7668;BME280;3876;42.204;24.686;2023-03-22T13:00:26;99228.63;;;15.60;96.03
7668;BME280;3876;42.204;24.686;2023-03-22T13:02:58;99241.88;;;15.69;95.36
7668;BME280;3876;42.204;24.686;2023-03-22T13:05:27;99236.72;;;15.69;93.59
7668;BME280;3876;42.204;24.686;2023-03-22T13:07:55;99240.72;;;15.75;94.15
7668;BME280;3876;42.204;24.686;2023-03-22T13:10:48;99237.13;;;15.77;93.72
7668;BME280;3876;42.204;24.686;2023-03-22T13:13:31;99236.94;;;15.81;93.48
7668;BME280;3876;42.204;24.686;2023-03-22T13:16:01;99235.19;;;15.81;92.74
7668;BME280;3876;42.204;24.686;2023-03-22T13:18:56;99228.47;;;15.79;92.51
7668;BME280;3876;42.204;24.686;2023-03-22T13:21:25;99230.72;;;15.85;92.50